createdAt,value
2019-05-01T00:00:36.243Z,10.38
2019-05-01T00:03:42.440Z,10.34
2019-05-01T00:06:33.041Z,10.32
2019-05-01T00:09:19.379Z,10.24
2019-05-01T00:12:05.855Z,10.27
2019-05-01T00:14:52.365Z,10.29
2019-05-01T00:17:38.500Z,10.15
2019-05-01T00:20:24.600Z,10.15
2019-05-01T00:23:10.610Z,10.08
2019-05-01T00:25:56.705Z,10.05
2019-05-01T00:28:42.895Z,9.97
2019-05-01T00:31:29.018Z,9.99
2019-05-01T00:34:15.010Z,9.97
2019-05-01T00:37:01.397Z,9.95
2019-05-01T00:39:47.465Z,9.91
2019-05-01T00:42:33.706Z,9.87
2019-05-01T00:45:19.930Z,9.74
2019-05-01T00:48:06.081Z,9.68
2019-05-01T00:50:52.240Z,9.57
2019-05-01T00:53:38.272Z,9.55
2019-05-01T00:56:50.736Z,9.60
2019-05-01T01:00:05.347Z,9.56
2019-05-01T01:02:53.065Z,9.56
2019-05-01T01:05:39.304Z,9.52
2019-05-01T01:08:25.440Z,9.48
2019-05-01T01:11:11.715Z,9.45
2019-05-01T01:13:57.670Z,9.47
2019-05-01T01:16:43.785Z,9.43
2019-05-01T01:19:30.045Z,9.44
2019-05-01T01:22:16.302Z,9.50
2019-05-01T01:25:02.380Z,9.47
2019-05-01T01:27:48.674Z,9.45
2019-05-01T01:30:34.864Z,9.45
2019-05-01T01:33:20.970Z,9.48
2019-05-01T01:36:07.165Z,9.50
2019-05-01T01:38:53.240Z,9.45
2019-05-01T01:41:39.490Z,9.52
2019-05-01T01:44:37.185Z,9.53
2019-05-01T01:47:23.404Z,9.47
2019-05-01T01:50:09.335Z,9.42
2019-05-01T01:52:55.555Z,9.36
2019-05-01T01:55:41.900Z,9.26
2019-05-01T01:58:28.107Z,9.18
2019-05-01T02:01:33.910Z,9.17
2019-05-01T02:04:45.317Z,9.16
2019-05-01T02:07:31.309Z,9.18
2019-05-01T02:10:17.874Z,8.98
2019-05-01T02:13:04.534Z,8.97
2019-05-01T02:15:50.701Z,9.03
2019-05-01T02:18:37.132Z,9.11
2019-05-01T02:21:22.960Z,9.27
2019-05-01T02:24:09.069Z,9.27
2019-05-01T02:26:57.375Z,9.34
2019-05-01T02:29:49.136Z,9.43
2019-05-01T02:32:35.960Z,9.39
2019-05-01T02:35:22.229Z,9.29
2019-05-01T02:38:10.096Z,9.37
2019-05-01T02:40:57.621Z,9.42
2019-05-01T02:43:46.481Z,9.34
2019-05-01T02:46:34.720Z,9.12
2019-05-01T02:49:37.111Z,9.18
2019-05-01T02:52:27.196Z,9.27
2019-05-01T02:55:32.050Z,9.36
2019-05-01T02:58:18.002Z,9.30
2019-05-01T03:01:04.198Z,9.36
2019-05-01T03:03:50.857Z,9.20
2019-05-01T03:06:37.303Z,9.21
2019-05-01T03:09:23.487Z,9.17
2019-05-01T03:12:09.844Z,9.30
2019-05-01T03:14:58.601Z,9.16
2019-05-01T03:18:07.341Z,9.22
2019-05-01T03:21:04.807Z,9.26
2019-05-01T03:23:57.721Z,9.20
2019-05-01T03:26:43.845Z,9.16
2019-05-01T03:29:30.042Z,9.21
2019-05-01T03:32:19.028Z,9.23
2019-05-01T03:35:04.622Z,9.16
2019-05-01T03:37:51.239Z,9.02
2019-05-01T03:40:37.485Z,9.05
2019-05-01T03:43:24.540Z,9.06
2019-05-01T03:46:10.680Z,9.02
2019-05-01T03:48:57.027Z,9.04
2019-05-01T03:51:43.553Z,9.02
2019-05-01T03:54:30.122Z,8.99
2019-05-01T03:57:16.725Z,8.84
2019-05-01T04:00:05.790Z,8.71
2019-05-01T04:03:10.371Z,8.61
2019-05-01T04:05:56.794Z,8.58
2019-05-01T04:08:43.217Z,8.43
2019-05-01T04:11:29.356Z,8.28
2019-05-01T04:14:15.645Z,8.36
2019-05-01T04:17:09.771Z,8.39
2019-05-01T04:19:56.302Z,8.31
2019-05-01T04:22:42.439Z,8.29
2019-05-01T04:25:28.731Z,8.37
2019-05-01T04:28:43.702Z,8.30
2019-05-01T04:31:58.462Z,8.22
2019-05-01T04:34:52.032Z,8.29
2019-05-01T04:37:38.276Z,8.32
2019-05-01T04:40:24.560Z,8.41
2019-05-01T04:43:11.079Z,8.36
2019-05-01T04:45:57.166Z,8.43
2019-05-01T04:48:43.281Z,8.55
2019-05-01T04:51:29.807Z,8.62
2019-05-01T04:54:16.181Z,8.48
2019-05-01T04:57:02.243Z,8.40
2019-05-01T04:59:48.465Z,8.44
2019-05-01T05:02:50.285Z,8.47
2019-05-01T05:05:37.020Z,8.52
2019-05-01T05:08:23.409Z,8.60
2019-05-01T05:11:14.956Z,8.49
2019-05-01T05:14:15.435Z,8.57
2019-05-01T05:17:06.950Z,8.53
2019-05-01T05:19:53.254Z,8.57
2019-05-01T05:22:39.583Z,8.72
2019-05-01T05:25:25.616Z,8.68
2019-05-01T05:28:12.310Z,8.75
2019-05-01T05:30:59.112Z,8.66
2019-05-01T05:33:46.148Z,8.82
2019-05-01T05:36:32.815Z,8.96
2019-05-01T05:39:31.790Z,8.97
2019-05-01T05:42:18.145Z,8.86
2019-05-01T05:45:05.055Z,8.97
2019-05-01T05:47:51.265Z,8.88
2019-05-01T05:50:45.785Z,8.71
2019-05-01T05:53:36.850Z,8.71
2019-05-01T05:56:27.695Z,8.86
2019-05-01T05:59:18.200Z,9.01
2019-05-01T06:02:28.430Z,9.13
2019-05-01T06:05:23.350Z,9.24
2019-05-01T06:08:17.354Z,9.32
2019-05-01T06:11:16.345Z,9.46
2019-05-01T06:14:21.459Z,9.41
2019-05-01T06:17:23.683Z,9.32
2019-05-01T06:20:20.895Z,8.93
2019-05-01T06:23:26.469Z,9.04
2019-05-01T06:26:31.926Z,9.08
2019-05-01T06:29:16.968Z,9.01
2019-05-01T06:32:03.460Z,9.05
2019-05-01T06:34:49.549Z,9.25
2019-05-01T06:38:06.145Z,9.37
2019-05-01T06:40:58.121Z,9.15
2019-05-01T06:44:02.345Z,9.06
2019-05-01T06:46:58.143Z,9.41
2019-05-01T06:49:51.949Z,9.38
2019-05-01T06:52:38.720Z,9.31
2019-05-01T06:55:27.076Z,9.65
2019-05-01T06:58:14.902Z,9.94
2019-05-01T07:01:01.545Z,10.05
2019-05-01T07:04:02.915Z,10.24
2019-05-01T07:06:36.168Z,10.34
2019-05-01T07:09:28.051Z,10.58
2019-05-01T07:12:15.532Z,10.78
2019-05-01T07:15:02.480Z,10.73
2019-05-01T07:17:49.016Z,10.43
2019-05-01T07:20:53.440Z,10.59
2019-05-01T07:23:39.780Z,10.63
2019-05-01T07:26:26.020Z,10.93
2019-05-01T07:29:16.008Z,11.18
2019-05-01T07:32:06.361Z,11.13
2019-05-01T07:34:50.572Z,11.30
2019-05-01T07:37:37.035Z,11.51
2019-05-01T07:40:29.048Z,13.17
2019-05-01T07:43:33.539Z,13.52
2019-05-01T07:46:48.901Z,14.32
2019-05-01T07:49:54.739Z,13.62
2019-05-01T07:52:41.505Z,13.50
2019-05-01T07:55:36.838Z,14.09
2019-05-01T07:58:23.350Z,14.20
2019-05-01T08:01:31.820Z,14.82
2019-05-01T08:04:19.708Z,14.75
2019-05-01T08:07:05.701Z,15.68
2019-05-01T08:09:53.228Z,16.37
2019-05-01T08:12:39.395Z,16.49
2019-05-01T08:15:27.292Z,17.23
2019-05-01T08:18:29.115Z,17.23
2019-05-01T08:21:26.154Z,16.01
2019-05-01T08:24:13.106Z,16.72
2019-05-01T08:26:59.425Z,15.82
2019-05-01T08:30:12.741Z,15.32
2019-05-01T08:33:17.129Z,15.71
2019-05-01T08:36:06.830Z,16.64
2019-05-01T08:38:52.057Z,15.94
2019-05-01T08:41:38.368Z,16.36
2019-05-01T08:44:29.515Z,16.21
2019-05-01T08:47:27.560Z,16.58
2019-05-01T08:50:19.869Z,17.86
2019-05-01T08:53:03.921Z,16.78
2019-05-01T08:55:49.992Z,16.82
2019-05-01T08:58:36.235Z,17.20
2019-05-01T09:01:22.700Z,17.50
2019-05-01T09:04:12.954Z,17.00
2019-05-01T09:06:57.333Z,16.26
2019-05-01T09:09:45.342Z,16.90
2019-05-01T09:12:31.946Z,18.10
2019-05-01T09:15:18.055Z,18.05
2019-05-01T09:18:04.401Z,17.51
2019-05-01T09:20:52.710Z,17.67
2019-05-01T09:23:39.355Z,18.22
2019-05-01T09:26:45.239Z,17.81
2019-05-01T09:29:39.691Z,18.50
2019-05-01T09:32:25.640Z,18.96
2019-05-01T09:35:15.801Z,18.46
2019-05-01T09:37:59.780Z,18.82
2019-05-01T09:40:45.940Z,18.87
2019-05-01T09:43:35.693Z,19.24
2019-05-01T09:46:20.225Z,18.92
2019-05-01T09:49:06.763Z,18.76
2019-05-01T09:52:12.655Z,18.96
2019-05-01T09:55:23.106Z,17.64
2019-05-01T09:58:06.580Z,17.64
2019-05-01T10:00:55.455Z,17.27
2019-05-01T10:03:44.608Z,17.02
2019-05-01T10:06:29.930Z,16.92
2019-05-01T10:09:16.743Z,16.47
2019-05-01T10:12:04.485Z,16.62
2019-05-01T10:14:50.520Z,16.89
2019-05-01T10:17:36.550Z,16.70
2019-05-01T10:20:22.656Z,16.53
2019-05-01T10:23:13.076Z,16.16
2019-05-01T10:25:58.905Z,16.65
2019-05-01T10:29:11.335Z,16.42
2019-05-01T10:32:11.246Z,16.42
2019-05-01T10:35:06.075Z,16.58
2019-05-01T10:37:52.375Z,16.69
2019-05-01T10:40:38.465Z,16.52
2019-05-01T10:43:24.586Z,16.71
2019-05-01T10:46:10.800Z,16.69
2019-05-01T10:48:57.532Z,17.27
2019-05-01T10:51:43.692Z,18.04
2019-05-01T10:54:29.840Z,18.28
2019-05-01T10:57:16.225Z,18.35
2019-05-01T11:00:02.410Z,18.93
2019-05-01T11:02:48.896Z,19.29
2019-05-01T11:05:35.327Z,19.58
2019-05-01T11:08:21.510Z,19.10
2019-05-01T11:11:07.644Z,19.28
2019-05-01T11:13:53.775Z,18.44
2019-05-01T11:16:39.985Z,18.80
2019-05-01T11:19:26.320Z,18.83
2019-05-01T11:22:12.343Z,18.70
2019-05-01T11:24:58.421Z,18.29
2019-05-01T11:27:44.831Z,18.02
2019-05-01T11:30:30.875Z,17.81
2019-05-01T11:33:24.109Z,17.25
2019-05-01T11:36:31.660Z,17.46
2019-05-01T11:39:26.398Z,17.03
2019-05-01T11:42:13.806Z,17.13
2019-05-01T11:44:59.720Z,17.00
2019-05-01T11:47:45.941Z,17.15
2019-05-01T11:50:32.111Z,17.16
2019-05-01T11:53:18.450Z,17.36
2019-05-01T11:56:04.401Z,17.26
2019-05-01T11:58:51.411Z,16.79
2019-05-01T12:01:37.415Z,16.93
2019-05-01T12:04:23.531Z,17.11
2019-05-01T12:07:09.584Z,16.78
2019-05-01T12:09:55.816Z,17.11
2019-05-01T12:12:41.895Z,17.25
2019-05-01T12:15:27.980Z,17.06
2019-05-01T12:18:14.310Z,17.48
2019-05-01T12:21:00.501Z,17.40
2019-05-01T12:23:46.510Z,17.37
2019-05-01T12:26:32.682Z,17.50
2019-05-01T12:29:18.885Z,17.56
2019-05-01T12:32:05.125Z,16.97
2019-05-01T12:34:51.226Z,17.24
2019-05-01T12:37:41.522Z,17.21
2019-05-01T12:40:27.663Z,17.07
2019-05-01T12:43:13.800Z,17.51
2019-05-01T12:45:59.951Z,17.66
2019-05-01T12:48:46.108Z,17.79
2019-05-01T12:51:32.345Z,17.90
2019-05-01T12:54:32.265Z,17.97
2019-05-01T12:57:18.473Z,17.87
2019-05-01T13:00:08.826Z,17.82
2019-05-01T13:02:53.250Z,17.84
2019-05-01T13:05:40.710Z,18.01
2019-05-01T13:08:26.771Z,18.04
2019-05-01T13:11:12.945Z,18.10
2019-05-01T13:13:59.255Z,18.04
2019-05-01T13:16:45.412Z,17.92
2019-05-01T13:19:31.535Z,18.06
2019-05-01T13:22:17.880Z,18.08
2019-05-01T13:25:03.971Z,18.14
2019-05-01T13:27:56.513Z,18.25
2019-05-01T13:31:04.760Z,18.19
2019-05-01T13:33:50.666Z,17.96
2019-05-01T13:36:37.215Z,17.99
2019-05-01T13:39:23.267Z,18.00
2019-05-01T13:42:09.535Z,18.26
2019-05-01T13:44:55.720Z,18.13
2019-05-01T13:47:41.790Z,18.26
2019-05-01T13:50:28.380Z,18.00
2019-05-01T13:53:14.505Z,18.37
2019-05-01T13:56:00.810Z,18.15
2019-05-01T13:58:47.015Z,18.03
2019-05-01T14:01:33.160Z,18.25
2019-05-01T14:04:21.650Z,18.33
2019-05-01T14:07:16.315Z,18.47
2019-05-01T14:09:56.190Z,18.56
2019-05-01T14:12:43.460Z,18.51
2019-05-01T14:15:29.660Z,18.29
2019-05-01T14:18:15.990Z,18.53
2019-05-01T14:21:12.275Z,18.61
2019-05-01T14:24:20.710Z,18.73
2019-05-01T14:27:07.802Z,18.52
2019-05-01T14:29:54.429Z,18.30
2019-05-01T14:32:40.560Z,18.52
2019-05-01T14:35:26.785Z,18.51
2019-05-01T14:38:13.035Z,18.38
2019-05-01T14:41:01.779Z,18.53
2019-05-01T14:43:48.775Z,18.64
2019-05-01T14:46:34.922Z,18.71
2019-05-01T14:49:22.271Z,18.74
2019-05-01T14:52:08.812Z,18.54
2019-05-01T14:54:55.206Z,18.28
2019-05-01T14:57:41.285Z,18.27
2019-05-01T15:00:27.639Z,18.58
2019-05-01T15:03:14.930Z,18.66
2019-05-01T15:06:01.112Z,18.56
2019-05-01T15:08:47.473Z,18.64
2019-05-01T15:11:33.653Z,18.43
2019-05-01T15:14:51.336Z,18.18
2019-05-01T15:17:45.655Z,18.28
2019-05-01T15:20:32.408Z,18.16
2019-05-01T15:23:19.765Z,18.14
2019-05-01T15:26:06.091Z,18.10
2019-05-01T15:28:52.320Z,18.03
2019-05-01T15:31:38.346Z,17.96
2019-05-01T15:34:24.989Z,17.95
2019-05-01T15:37:12.095Z,17.83
2019-05-01T15:40:11.086Z,17.69
2019-05-01T15:43:02.948Z,17.63
2019-05-01T15:45:49.295Z,17.63
2019-05-01T15:48:35.470Z,17.51
2019-05-01T15:51:21.595Z,17.36
2019-05-01T15:54:07.874Z,17.38
2019-05-01T15:56:53.919Z,17.54
2019-05-01T15:59:40.219Z,17.72
2019-05-01T16:02:26.485Z,17.70
2019-05-01T16:05:12.540Z,17.77
2019-05-01T16:08:09.418Z,17.81
2019-05-01T16:11:14.100Z,17.74
2019-05-01T16:14:00.700Z,17.65
2019-05-01T16:16:48.608Z,17.47
2019-05-01T16:19:34.900Z,17.50
2019-05-01T16:22:21.066Z,17.53
2019-05-01T16:25:07.628Z,17.57
2019-05-01T16:27:56.414Z,17.46
2019-05-01T16:30:43.805Z,17.40
2019-05-01T16:33:30.290Z,17.43
2019-05-01T16:36:16.931Z,17.42
2019-05-01T16:39:23.410Z,17.43
2019-05-01T16:42:10.390Z,17.23
2019-05-01T16:44:56.754Z,17.16
2019-05-01T16:47:42.735Z,17.20
2019-05-01T16:50:28.800Z,17.10
2019-05-01T16:53:15.016Z,16.91
2019-05-01T16:56:01.154Z,16.95
2019-05-01T16:58:47.156Z,16.98
2019-05-01T17:01:51.947Z,17.00
2019-05-01T17:05:00.260Z,16.88
2019-05-01T17:08:04.532Z,16.97
2019-05-01T17:10:50.900Z,16.86
2019-05-01T17:13:37.001Z,16.84
2019-05-01T17:16:23.290Z,16.88
2019-05-01T17:19:09.445Z,16.68
2019-05-01T17:21:55.515Z,16.72
2019-05-01T17:24:41.540Z,16.66
2019-05-01T17:27:27.720Z,16.45
2019-05-01T17:30:17.870Z,16.53
2019-05-01T17:33:04.553Z,16.53
2019-05-01T17:35:50.990Z,16.46
2019-05-01T17:38:48.945Z,16.38
2019-05-01T17:41:27.125Z,16.28
2019-05-01T17:44:14.901Z,16.09
2019-05-01T17:47:01.380Z,16.03
2019-05-01T17:49:47.495Z,16.00
2019-05-01T17:52:34.365Z,15.89
2019-05-01T17:55:21.030Z,15.87
2019-05-01T17:58:07.264Z,15.79
2019-05-01T18:01:15.900Z,15.71
2019-05-01T18:04:14.029Z,15.64
2019-05-01T18:07:00.420Z,15.56
2019-05-01T18:09:47.280Z,15.50
2019-05-01T18:12:33.795Z,15.44
2019-05-01T18:15:20.100Z,15.44
2019-05-01T18:18:10.642Z,15.39
2019-05-01T18:20:56.036Z,15.32
2019-05-01T18:24:01.025Z,15.14
2019-05-01T18:27:07.125Z,15.11
2019-05-01T18:29:59.328Z,14.94
2019-05-01T18:32:51.965Z,14.85
2019-05-01T18:35:36.800Z,14.55
2019-05-01T18:38:38.381Z,14.50
2019-05-01T18:41:47.992Z,14.40
2019-05-01T18:44:34.425Z,14.34
2019-05-01T18:47:22.156Z,14.19
2019-05-01T18:50:09.050Z,14.09
2019-05-01T18:52:55.331Z,14.01
2019-05-01T18:55:41.705Z,13.98
2019-05-01T18:58:28.477Z,13.96
2019-05-01T19:01:15.665Z,13.91
2019-05-01T19:04:04.435Z,13.86
2019-05-01T19:06:52.666Z,13.76
2019-05-01T19:09:39.955Z,13.68
2019-05-01T19:12:26.426Z,13.62
2019-05-01T19:15:13.255Z,13.57
2019-05-01T19:18:00.746Z,13.45
2019-05-01T19:20:58.947Z,13.39
2019-05-01T19:23:37.925Z,13.36
2019-05-01T19:26:27.370Z,13.27
2019-05-01T19:29:17.427Z,13.22
2019-05-01T19:32:04.950Z,13.21
2019-05-01T19:34:54.039Z,13.11
2019-05-01T19:37:41.805Z,13.08
2019-05-01T19:40:30.665Z,13.00
2019-05-01T19:43:20.560Z,12.98
2019-05-01T19:46:13.050Z,12.92
2019-05-01T19:49:00.350Z,12.83
2019-05-01T19:51:55.442Z,12.77
2019-05-01T19:54:41.210Z,12.72
2019-05-01T19:57:29.585Z,12.63
2019-05-01T20:00:27.645Z,12.57
2019-05-01T20:03:14.714Z,12.51
2019-05-01T20:06:05.495Z,12.45
2019-05-01T20:08:50.595Z,12.37
2019-05-01T20:11:37.870Z,12.27
2019-05-01T20:14:24.545Z,12.18
2019-05-01T20:17:11.881Z,12.09
2019-05-01T20:19:58.645Z,12.01
2019-05-01T20:22:48.241Z,11.93
2019-05-01T20:25:33.951Z,11.86
2019-05-01T20:28:22.447Z,11.69
2019-05-01T20:31:09.546Z,11.64
2019-05-01T20:33:56.025Z,11.50
2019-05-01T20:36:42.635Z,11.31
2019-05-01T20:39:29.861Z,11.17
2019-05-01T20:42:16.074Z,11.11
2019-05-01T20:45:05.347Z,11.10
2019-05-01T20:47:54.235Z,11.08
2019-05-01T20:50:39.216Z,11.06
2019-05-01T20:53:25.155Z,11.02
2019-05-01T20:56:39.850Z,11.06
2019-05-01T20:59:25.910Z,11.09
2019-05-01T21:02:12.000Z,11.11
2019-05-01T21:05:20.400Z,11.13
2019-05-01T21:08:15.480Z,11.07
2019-05-01T21:11:14.827Z,11.04
2019-05-01T21:14:17.036Z,11.03
2019-05-01T21:16:49.075Z,11.03
2019-05-01T21:19:37.663Z,10.98
2019-05-01T21:22:23.596Z,10.94
2019-05-01T21:25:09.806Z,10.92
2019-05-01T21:27:55.970Z,10.84
2019-05-01T21:30:43.940Z,10.77
2019-05-01T21:33:30.210Z,10.71
2019-05-01T21:36:16.590Z,10.66
2019-05-01T21:39:04.275Z,10.57
2019-05-01T21:41:50.506Z,10.51
2019-05-01T21:44:36.818Z,10.53
2019-05-01T21:47:23.653Z,10.50
2019-05-01T21:50:10.182Z,10.49
2019-05-01T21:52:58.071Z,10.39
2019-05-01T21:55:44.240Z,10.35
2019-05-01T21:58:33.293Z,10.33
2019-05-01T22:01:18.120Z,10.26
2019-05-01T22:04:05.100Z,10.21
2019-05-01T22:06:53.525Z,10.20
2019-05-01T22:09:40.075Z,10.11
2019-05-01T22:12:26.479Z,10.04
2019-05-01T22:15:24.034Z,10.00
2019-05-01T22:18:18.870Z,9.96
2019-05-01T22:21:23.045Z,9.85
2019-05-01T22:24:17.804Z,9.84
2019-05-01T22:27:10.870Z,9.76
2019-05-01T22:30:10.767Z,9.66
2019-05-01T22:32:55.201Z,9.52
2019-05-01T22:35:45.820Z,9.45
2019-05-01T22:38:31.824Z,9.38
2019-05-01T22:41:17.766Z,9.37
2019-05-01T22:44:04.054Z,9.38
2019-05-01T22:46:50.179Z,9.39
2019-05-01T22:49:36.210Z,9.46
2019-05-01T22:52:22.404Z,9.45
2019-05-01T22:55:08.730Z,9.45
2019-05-01T22:57:54.698Z,9.39
2019-05-01T23:00:55.199Z,9.35
2019-05-01T23:03:47.875Z,9.26
2019-05-01T23:06:37.095Z,9.16
2019-05-01T23:09:23.412Z,9.18
2019-05-01T23:12:11.040Z,9.09
2019-05-01T23:14:57.279Z,9.01
2019-05-01T23:17:45.520Z,8.94
2019-05-01T23:20:34.691Z,8.89
2019-05-01T23:23:19.360Z,8.84
2019-05-01T23:26:05.364Z,8.82
2019-05-01T23:28:51.595Z,8.81
2019-05-01T23:31:37.831Z,8.75
2019-05-01T23:34:26.035Z,8.71
2019-05-01T23:37:12.088Z,8.66
2019-05-01T23:39:58.315Z,8.57
2019-05-01T23:42:52.390Z,8.57
2019-05-01T23:45:32.960Z,8.68
2019-05-01T23:48:19.192Z,8.70
2019-05-01T23:51:05.360Z,8.73
2019-05-01T23:53:51.364Z,8.72
2019-05-01T23:56:37.693Z,8.70
2019-05-01T23:59:23.738Z,8.69
